Time;durP1;ratioP1;P1;durP2;ratioP2;P2;SDS_P1;SDS_P2;PMS_P1;PMS_P2;Temp;Humidity;BMP_temperature;BMP_pressure;BME280_temperature;BME280_humidity;BME280_pressure;Samples;Min_cycle;Max_cycle;Signal;HPM_P1;HPM_P2
2023/03/30 00:02:38;;;;;;;;;;;;;;;;;;5002938;28;19927;-86
2023/03/30 00:05:24;;;;;;;;;;;;;;;;;;5005265;28;19913;-87
2023/03/30 00:08:13;;;;;;;;;;;;;;;;;;4982031;28;19922;-86
2023/03/30 00:10:59;;;;;;;;;;;;;;;;;;5004595;28;19925;-86
2023/03/30 00:13:46;;;;;;;;;;;;;;;;;;5007598;28;19936;-87
2023/03/30 00:16:32;;;;;;;;;;;;;;;;;;5005805;28;19928;-86
2023/03/30 00:19:19;;;;;;;;;;;;;;;;;;4995287;28;19932;-87
2023/03/30 00:22:06;;;;;;;;;;;;;;;;;;5001885;28;19924;-86
2023/03/30 00:24:52;;;;;;;;;;;;;;;;;;5005949;28;20730;-87
2023/03/30 00:27:39;;;;;;;;;;;;;;;;;;5006783;28;19914;-87
2023/03/30 00:30:25;;;;;;;;;;;;;;;;;;4989288;28;19925;-87
2023/03/30 00:33:12;;;;;;;;;;;;;;;;;;4990017;28;19914;-87
2023/03/30 00:35:58;;;;;;;;;;;;;;;;;;5004518;28;19918;-86
2023/03/30 00:38:45;;;;;;;;;;;;;;;;;;4999269;28;19930;-87
2023/03/30 00:41:31;;;;;;;;;;;;;;;;;;5003218;28;20445;-87
2023/03/30 00:44:18;;;;;;;;;;;;;;;;;;4991364;28;19921;-87
2023/03/30 00:47:04;;;;;;;;;;;;;;;;;;4996589;28;19922;-86
2023/03/30 00:49:51;;;;;;;;;;;;;;;;;;5005557;28;20041;-87
2023/03/30 00:52:37;;;;;;;;;;;;;;;;;;4981006;28;19928;-85
2023/03/30 00:55:24;;;;;;;;;;;;;;;;;;5005018;28;19940;-85
2023/03/30 00:58:10;;;;;;;;;;;;;;;;;;5004219;28;19922;-85
2023/03/30 01:00:57;;;;;;;;;;;;;;;;;;5004638;28;19933;-86
2023/03/30 01:03:45;;;;;;;;;;;;;;;;;;5007289;28;19924;-86
2023/03/30 01:06:32;;;;;;;;;;;;;;;;;;4988588;28;19922;-85
2023/03/30 01:09:22;;;;;;;;;;;;;;;;;;4988637;28;20389;-85
2023/03/30 01:12:08;;;;;;;;;;;;;;;;;;4999437;28;19918;-85
2023/03/30 01:14:55;;;;;;;;;;;;;;;;;;5004616;28;19930;-85
2023/03/30 01:17:41;;;;;;;;;;;;;;;;;;5000288;28;19924;-86
2023/03/30 01:20:28;;;;;;;;;;;;;;;;;;4991007;28;20334;-86
2023/03/30 01:23:14;;;;;;;;;;;;;;;;;;4999353;28;20362;-86
2023/03/30 01:26:01;;;;;;;;;;;;;;;;;;4999281;28;19932;-86
2023/03/30 01:28:47;;;;;;;;;;;;;;;;;;5002874;28;20341;-85
2023/03/30 01:31:34;;;;;;;;;;;;;;;;;;5004127;28;19921;-86
2023/03/30 01:34:20;;;;;;;;;;;;;;;;;;4997107;28;19917;-86
2023/03/30 01:37:07;;;;;;;;;;;;;;;;;;5005176;28;19921;-85
2023/03/30 01:39:54;;;;;;;;;;;;;;;;;;4979040;28;19926;-86
2023/03/30 01:42:41;;;;;;;;;;;;;;;;;;5003902;28;20423;-87
2023/03/30 01:45:27;;;;;;;;;;;;;;;;;;4976001;28;19918;-86
2023/03/30 01:48:14;;;;;;;;;;;;;;;;;;4998500;28;19925;-86
2023/03/30 01:51:01;;;;;;;;;;;;;;;;;;4998805;28;20186;-85
2023/03/30 01:53:47;;;;;;;;;;;;;;;;;;5002626;28;19921;-86
2023/03/30 01:56:34;;;;;;;;;;;;;;;;;;4998245;28;20312;-85
2023/03/30 01:59:20;;;;;;;;;;;;;;;;;;5001949;28;19937;-85
2023/03/30 02:02:07;;;;;;;;;;;;;;;;;;5001751;28;19917;-86
2023/03/30 02:04:53;;;;;;;;;;;;;;;;;;4993785;28;19925;-85
2023/03/30 02:07:40;;;;;;;;;;;;;;;;;;5004313;28;20476;-85
2023/03/30 02:10:26;;;;;;;;;;;;;;;;;;5003747;28;19914;-86
2023/03/30 02:13:13;;;;;;;;;;;;;;;;;;5001008;28;20412;-85
2023/03/30 02:15:59;;;;;;;;;;;;;;;;;;4991470;28;19930;-84
2023/03/30 02:18:46;;;;;;;;;;;;;;;;;;5002677;28;19936;-86
2023/03/30 02:21:34;;;;;;;;;;;;;;;;;;5002972;28;19914;-86
2023/03/30 02:24:21;;;;;;;;;;;;;;;;;;5001079;28;19947;-86
2023/03/30 02:27:08;;;;;;;;;;;;;;;;;;5000312;28;19918;-85
2023/03/30 02:29:55;;;;;;;;;;;;;;;;;;5003940;28;19918;-81
2023/03/30 02:32:41;;;;;;;;;;;;;;;;;;4996785;28;20570;-85
2023/03/30 02:35:28;;;;;;;;;;;;;;;;;;4985881;28;19917;-85
2023/03/30 02:38:14;;;;;;;;;;;;;;;;;;4995020;28;19922;-85
2023/03/30 02:41:01;;;;;;;;;;;;;;;;;;4997864;28;19922;-86
2023/03/30 02:43:47;;;;;;;;;;;;;;;;;;5004271;28;19913;-86
2023/03/30 02:46:35;;;;;;;;;;;;;;;;;;5002822;28;19921;-86
2023/03/30 02:49:21;;;;;;;;;;;;;;;;;;5001502;28;19917;-86
2023/03/30 02:52:08;;;;;;;;;;;;;;;;;;5003081;28;19913;-86
2023/03/30 02:54:54;;;;;;;;;;;;;;;;;;4999043;28;20520;-83
2023/03/30 02:57:41;;;;;;;;;;;;;;;;;;4999477;28;19929;-87
2023/03/30 03:00:27;;;;;;;;;;;;;;;;;;5003913;28;20376;-87
2023/03/30 03:03:15;;;;;;;;;;;;;;;;;;5000969;28;20425;-88
2023/03/30 03:06:01;;;;;;;;;;;;;;;;;;5007950;28;19922;-88
2023/03/30 03:08:48;;;;;;;;;;;;;;;;;;5005312;28;20289;-88
2023/03/30 03:11:35;;;;;;;;;;;;;;;;;;4994125;28;19924;-86
2023/03/30 03:14:21;;;;;;;;;;;;;;;;;;5002325;28;19932;-85
2023/03/30 03:17:08;;;;;;;;;;;;;;;;;;5006184;28;19921;-87
2023/03/30 03:19:54;;;;;;;;;;;;;;;;;;5005008;28;19933;-80
2023/03/30 03:22:41;;;;;;;;;;;;;;;;;;4999904;28;19929;-85
2023/03/30 03:25:27;;;;;;;;;;;;;;;;;;4994466;28;19930;-85
2023/03/30 03:28:14;;;;;;;;;;;;;;;;;;4993417;28;20309;-88
2023/03/30 03:31:01;;;;;;;;;;;;;;;;;;5003885;28;19922;-86
2023/03/30 03:33:48;;;;;;;;;;;;;;;;;;5003930;28;19932;-87
2023/03/30 03:36:34;;;;;;;;;;;;;;;;;;5001605;28;19913;-87
2023/03/30 03:39:21;;;;;;;;;;;;;;;;;;4998576;28;20305;-87
2023/03/30 03:42:07;;;;;;;;;;;;;;;;;;4997483;28;19933;-89
2023/03/30 03:44:54;;;;;;;;;;;;;;;;;;5001869;28;20262;-90
2023/03/30 03:47:40;;;;;;;;;;;;;;;;;;4990959;28;19928;-87
2023/03/30 03:50:27;;;;;;;;;;;;;;;;;;5003060;28;19935;-88
2023/03/30 03:53:13;;;;;;;;;;;;;;;;;;4993061;28;19922;-86
2023/03/30 03:56:02;;;;;;;;;;;;;;;;;;5000344;28;19918;-85
2023/03/30 03:58:48;;;;;;;;;;;;;;;;;;5004922;28;19929;-89
2023/03/30 04:01:35;;;;;;;;;;;;;;;;;;4998576;28;19932;-87
2023/03/30 04:04:21;;;;;;;;;;;;;;;;;;5001480;28;19944;-87
2023/03/30 04:07:08;;;;;;;;;;;;;;;;;;5000004;28;20004;-86
2023/03/30 04:09:54;;;;;;;;;;;;;;;;;;5002686;28;19918;-82
2023/03/30 04:12:41;;;;;;;;;;;;;;;;;;5002855;28;19921;-85
2023/03/30 04:15:27;;;;;;;;;;;;;;;;;;4995205;28;19929;-87
2023/03/30 04:18:14;;;;;;;;;;;;;;;;;;5004642;28;19922;-86
2023/03/30 04:21:01;;;;;;;;;;;;;;;;;;4994045;28;19925;-86
2023/03/30 04:23:48;;;;;;;;;;;;;;;;;;5005593;28;19913;-86
2023/03/30 04:26:35;;;;;;;;;;;;;;;;;;4999405;28;19925;-87
2023/03/30 04:29:21;;;;;;;;;;;;;;;;;;5004719;28;20388;-86
2023/03/30 04:32:09;;;;;;;;;;;;;;;;;;5001358;28;19989;-86
2023/03/30 04:34:55;;;;;;;;;;;;;;;;;;4977237;28;19917;-85
2023/03/30 04:37:42;;;;;;;;;;;;;;;;;;5004564;28;20547;-86
2023/03/30 04:40:28;;;;;;;;;;;;;;;;;;4994019;28;19926;-87
2023/03/30 04:43:18;;;;;;;;;;;;;;;;;;4982369;28;19976;-87
2023/03/30 04:46:05;;;;;;;;;;;;;;;;;;4997734;28;19924;-86
2023/03/30 04:48:51;;;;;;;;;;;;;;;;;;4991930;28;19936;-86
2023/03/30 04:51:39;;;;;;;;;;;;;;;;;;5001682;28;19918;-86
2023/03/30 04:54:26;;;;;;;;;;;;;;;;;;5001251;28;19945;-87
2023/03/30 04:57:15;;;;;;;;;;;;;;;;;;4994330;28;19913;-86
2023/03/30 05:00:04;;;;;;;;;;;;;;;;;;5004659;28;19940;-87
2023/03/30 05:02:51;;;;;;;;;;;;;;;;;;4995310;28;19941;-86
2023/03/30 05:05:37;;;;;;;;;;;;;;;;;;5006545;28;19924;-87
2023/03/30 05:08:24;;;;;;;;;;;;;;;;;;5002000;28;19921;-86
2023/03/30 05:11:10;;;;;;;;;;;;;;;;;;5005113;28;19917;-86
2023/03/30 05:13:57;;;;;;;;;;;;;;;;;;4991181;28;19940;-86
2023/03/30 05:16:43;;;;;;;;;;;;;;;;;;4999975;28;19922;-86
2023/03/30 05:19:30;;;;;;;;;;;;;;;;;;5003939;28;19930;-86
2023/03/30 05:22:16;;;;;;;;;;;;;;;;;;5005465;28;20369;-87
2023/03/30 05:25:03;;;;;;;;;;;;;;;;;;4997279;28;19921;-87
2023/03/30 05:27:49;;;;;;;;;;;;;;;;;;5000693;28;19940;-87
2023/03/30 05:30:36;;;;;;;;;;;;;;;;;;4989583;28;20917;-86
2023/03/30 05:33:23;;;;;;;;;;;;;;;;;;4997248;28;20384;-87
2023/03/30 05:36:09;;;;;;;;;;;;;;;;;;5004598;28;19924;-87
2023/03/30 05:38:56;;;;;;;;;;;;;;;;;;5001919;28;19929;-86
2023/03/30 05:41:42;;;;;;;;;;;;;;;;;;5004845;28;20558;-86
2023/03/30 05:44:29;;;;;;;;;;;;;;;;;;5005531;28;19913;-87
2023/03/30 05:47:15;;;;;;;;;;;;;;;;;;5003835;28;19917;-87
2023/03/30 05:50:02;;;;;;;;;;;;;;;;;;4999247;28;19926;-86
2023/03/30 05:52:48;;;;;;;;;;;;;;;;;;4996631;28;19914;-87
2023/03/30 05:55:35;;;;;;;;;;;;;;;;;;5001896;28;19918;-87
2023/03/30 05:58:21;;;;;;;;;;;;;;;;;;5001890;28;20400;-87
2023/03/30 06:01:08;;;;;;;;;;;;;;;;;;4989591;28;19922;-86
2023/03/30 06:03:54;;;;;;;;;;;;;;;;;;4991459;28;19921;-78
2023/03/30 06:06:41;;;;;;;;;;;;;;;;;;4992890;28;20378;-87
2023/03/30 06:09:27;;;;;;;;;;;;;;;;;;5005226;28;19924;-87
2023/03/30 06:12:14;;;;;;;;;;;;;;;;;;4997099;28;19939;-88
2023/03/30 06:15:01;;;;;;;;;;;;;;;;;;4999171;28;19940;-86
2023/03/30 06:17:48;;;;;;;;;;;;;;;;;;5003105;28;19929;-86
2023/03/30 06:20:34;;;;;;;;;;;;;;;;;;4993163;28;19929;-85
2023/03/30 06:23:21;;;;;;;;;;;;;;;;;;5001771;28;19958;-86
2023/03/30 06:26:08;;;;;;;;;;;;;;;;;;5003902;28;19924;-87
2023/03/30 06:28:55;;;;;;;;;;;;;;;;;;5000645;28;19921;-77
2023/03/30 06:31:41;;;;;;;;;;;;;;;;;;4994857;28;19918;-86
2023/03/30 06:34:28;;;;;;;;;;;;;;;;;;5006698;28;19928;-87
2023/03/30 06:37:14;;;;;;;;;;;;;;;;;;4994341;28;20385;-87
2023/03/30 06:40:02;;;;;;;;;;;;;;;;;;4998583;28;20341;-86
2023/03/30 06:42:49;;;;;;;;;;;;;;;;;;5001338;28;19914;-87
2023/03/30 06:45:35;;;;;;;;;;;;;;;;;;5002331;28;19921;-86
2023/03/30 06:48:22;;;;;;;;;;;;;;;;;;4998873;28;19929;-86
2023/03/30 06:51:11;;;;;;;;;;;;;;;;;;4994599;28;20366;-86
2023/03/30 06:53:58;;;;;;;;;;;;;;;;;;4991550;28;19921;-87
2023/03/30 06:56:44;;;;;;;;;;;;;;;;;;4999381;28;19979;-86
2023/03/30 06:59:32;;;;;;;;;;;;;;;;;;5001507;28;19921;-87
2023/03/30 07:02:18;;;;;;;;;;;;;;;;;;5001870;28;19918;-87
2023/03/30 07:05:05;;;;;;;;;;;;;;;;;;5004824;28;19928;-86
2023/03/30 07:07:52;;;;;;;;;;;;;;;;;;5005395;28;19929;-86
2023/03/30 07:10:39;;;;;;;;;;;;;;;;;;5006442;28;20381;-85
2023/03/30 07:13:26;;;;;;;;;;;;;;;;;;4997401;28;20029;-86
2023/03/30 07:16:13;;;;;;;;;;;;;;;;;;5004388;28;19944;-85
2023/03/30 07:18:59;;;;;;;;;;;;;;;;;;5001239;28;20024;-86
2023/03/30 07:21:46;;;;;;;;;;;;;;;;;;4999918;28;20295;-86
2023/03/30 07:24:32;;;;;;;;;;;;;;;;;;5006277;28;19936;-86
2023/03/30 07:27:19;;;;;;;;;;;;;;;;;;5005553;28;19951;-85
2023/03/30 07:30:06;;;;;;;;;;;;;;;;;;5002009;28;19937;-85
2023/03/30 07:32:53;;;;;;;;;;;;;;;;;;5005858;28;20635;-86
2023/03/30 07:35:39;;;;;;;;;;;;;;;;;;5012557;28;19929;-86
2023/03/30 07:38:26;;;;;;;;;;;;;;;;;;4998915;28;20313;-87
2023/03/30 07:41:12;;;;;;;;;;;;;;;;;;5006806;28;20320;-86
2023/03/30 07:43:59;;;;;;;;;;;;;;;;;;5006637;28;19917;-86
2023/03/30 07:46:46;;;;;;;;;;;;;;;;;;5006164;28;20262;-86
2023/03/30 07:49:32;;;;;;;;;;;;;;;;;;4991296;28;19922;-85
2023/03/30 07:52:19;;;;;;;;;;;;;;;;;;4999753;28;19918;-85
2023/03/30 07:55:06;;;;;;;;;;;;;;;;;;5002025;28;19955;-86
2023/03/30 07:57:53;;;;;;;;;;;;;;;;;;4998716;28;19944;-86
2023/03/30 08:00:39;;;;;;;;;;;;;;;;;;5000239;28;19929;-86
2023/03/30 08:03:25;;;;;;;;;;;;;;;;;;5003800;28;19917;-86
2023/03/30 08:06:12;;;;;;;;;;;;;;;;;;5006625;28;19940;-84
2023/03/30 08:08:58;;;;;;;;;;;;;;;;;;4997198;28;19918;-84
2023/03/30 08:11:45;;;;;;;;;;;;;;;;;;5000621;28;20691;-85
2023/03/30 08:14:31;;;;;;;;;;;;;;;;;;5006871;28;19926;-85
2023/03/30 08:17:18;;;;;;;;;;;;;;;;;;5006245;28;19914;-85
2023/03/30 08:20:09;;;;;;;;;;;;;;;;;;4984697;28;19937;-86
2023/03/30 08:22:56;;;;;;;;;;;;;;;;;;4998442;28;20487;-84
2023/03/30 08:25:42;;;;;;;;;;;;;;;;;;5005599;28;19932;-85
2023/03/30 08:28:29;;;;;;;;;;;;;;;;;;5003391;28;19924;-86
2023/03/30 08:31:17;;;;;;;;;;;;;;;;;;5002785;28;19918;-86
2023/03/30 08:34:03;;;;;;;;;;;;;;;;;;5004310;28;20301;-87
2023/03/30 08:36:50;;;;;;;;;;;;;;;;;;4996252;28;19973;-85
2023/03/30 08:39:37;;;;;;;;;;;;;;;;;;4996360;28;19936;-86
2023/03/30 08:42:23;;;;;;;;;;;;;;;;;;4998152;28;19933;-86
2023/03/30 08:45:10;;;;;;;;;;;;;;;;;;5006304;28;19933;-85
2023/03/30 08:47:56;;;;;;;;;;;;;;;;;;4987646;28;19917;-85
2023/03/30 08:50:43;;;;;;;;;;;;;;;;;;5002379;28;20121;-85
2023/03/30 08:53:29;;;;;;;;;;;;;;;;;;4998029;28;21127;-85
2023/03/30 08:56:16;;;;;;;;;;;;;;;;;;4999683;28;20595;-86
2023/03/30 08:59:03;;;;;;;;;;;;;;;;;;4998478;28;19914;-86
2023/03/30 09:01:50;;;;;;;;;;;;;;;;;;5001505;28;19920;-86
2023/03/30 09:04:36;;;;;;;;;;;;;;;;;;5001682;28;19922;-86
2023/03/30 09:07:23;;;;;;;;;;;;;;;;;;4997204;28;20381;-86
2023/03/30 09:10:09;;;;;;;;;;;;;;;;;;4995388;28;19924;-86
2023/03/30 09:12:56;;;;;;;;;;;;;;;;;;5002196;28;20776;-85
2023/03/30 09:15:42;;;;;;;;;;;;;;;;;;5000293;28;19933;-86
2023/03/30 09:18:29;;;;;;;;;;;;;;;;;;5004092;28;19921;-84
2023/03/30 09:21:15;;;;;;;;;;;;;;;;;;4996294;28;19940;-86
2023/03/30 09:24:02;;;;;;;;;;;;;;;;;;4994758;28;19922;-86
2023/03/30 09:26:48;;;;;;;;;;;;;;;;;;5001134;28;20704;-86
2023/03/30 09:29:35;;;;;;;;;;;;;;;;;;5001983;28;20282;-88
2023/03/30 09:32:21;;;;;;;;;;;;;;;;;;5007380;28;19931;-86
2023/03/30 09:35:09;;;;;;;;;;;;;;;;;;4998891;28;19925;-86
2023/03/30 09:37:56;;;;;;;;;;;;;;;;;;4970175;28;19956;-86
2023/03/30 09:40:43;;;;;;;;;;;;;;;;;;5000395;28;20311;-85
2023/03/30 09:43:29;;;;;;;;;;;;;;;;;;4995289;28;19914;-87
2023/03/30 09:46:16;;;;;;;;;;;;;;;;;;4987721;28;19929;-86
2023/03/30 09:49:02;;;;;;;;;;;;;;;;;;5002558;28;19914;-86
2023/03/30 09:51:48;;;;;;;;;;;;;;;;;;5005060;28;19917;-86
2023/03/30 09:54:36;;;;;;;;;;;;;;;;;;4998993;28;20410;-86
2023/03/30 09:57:22;;;;;;;;;;;;;;;;;;4998640;28;19913;-87
2023/03/30 10:00:10;;;;;;;;;;;;;;;;;;5003324;28;19925;-86
2023/03/30 10:02:57;;;;;;;;;;;;;;;;;;5001814;28;20482;-86
2023/03/30 10:05:43;;;;;;;;;;;;;;;;;;4994280;28;19948;-86
2023/03/30 10:08:30;;;;;;;;;;;;;;;;;;5003882;28;19921;-85
2023/03/30 10:11:16;;;;;;;;;;;;;;;;;;4999142;28;19920;-85
2023/03/30 10:14:04;;;;;;;;;;;;;;;;;;5004333;28;20308;-85
2023/03/30 10:16:50;;;;;;;;;;;;;;;;;;4995301;28;19921;-86
2023/03/30 10:19:37;;;;;;;;;;;;;;;;;;4979144;28;19948;-85
2023/03/30 10:22:23;;;;;;;;;;;;;;;;;;5001063;28;19928;-86
2023/03/30 10:25:10;;;;;;;;;;;;;;;;;;4997573;28;19921;-85
2023/03/30 10:27:56;;;;;;;;;;;;;;;;;;4988373;28;19918;-86
2023/03/30 10:30:42;;;;;;;;;;;;;;;;;;5001044;28;19922;-86
2023/03/30 10:33:29;;;;;;;;;;;;;;;;;;5002179;28;19918;-86
2023/03/30 10:36:16;;;;;;;;;;;;;;;;;;5004030;28;20376;-85
2023/03/30 10:39:02;;;;;;;;;;;;;;;;;;5001736;28;19921;-86
2023/03/30 10:41:49;;;;;;;;;;;;;;;;;;5001019;28;19932;-87
2023/03/30 10:44:35;;;;;;;;;;;;;;;;;;4985814;28;20047;-86
2023/03/30 10:47:22;;;;;;;;;;;;;;;;;;5002429;28;20263;-87
2023/03/30 10:50:08;;;;;;;;;;;;;;;;;;5003601;28;19918;-88
2023/03/30 10:52:55;;;;;;;;;;;;;;;;;;5002888;28;19926;-86
2023/03/30 10:55:41;;;;;;;;;;;;;;;;;;5005080;28;19918;-87
2023/03/30 10:58:28;;;;;;;;;;;;;;;;;;4988010;28;19918;-87
2023/03/30 11:01:14;;;;;;;;;;;;;;;;;;4988495;28;19936;-87
2023/03/30 11:04:01;;;;;;;;;;;;;;;;;;4998578;28;19923;-87
2023/03/30 11:06:51;;;;;;;;;;;;;;;;;;4985252;28;20356;-87
2023/03/30 11:09:38;;;;;;;;;;;;;;;;;;5001846;28;19918;-87
2023/03/30 11:12:24;;;;;;;;;;;;;;;;;;4993306;28;19925;-87
2023/03/30 11:15:11;;;;;;;;;;;;;;;;;;4980642;28;19936;-87
2023/03/30 11:17:59;;;;;;;;;;;;;;;;;;4999016;28;20144;-86
2023/03/30 11:20:46;;;;;;;;;;;;;;;;;;5003295;28;19936;-85
2023/03/30 11:23:32;;;;;;;;;;;;;;;;;;5001226;28;19914;-85
2023/03/30 11:26:19;;;;;;;;;;;;;;;;;;5004266;28;19914;-85
2023/03/30 11:29:05;;;;;;;;;;;;;;;;;;4995874;28;19917;-86
2023/03/30 11:31:52;;;;;;;;;;;;;;;;;;5007106;28;20393;-86
2023/03/30 11:34:38;;;;;;;;;;;;;;;;;;4997225;28;19920;-86
2023/03/30 11:37:28;;;;;;;;;;;;;;;;;;5003607;28;20361;-86
2023/03/30 11:40:15;;;;;;;;;;;;;;;;;;4997628;28;19932;-86
2023/03/30 11:43:02;;;;;;;;;;;;;;;;;;5007349;28;20519;-86
2023/03/30 11:45:49;;;;;;;;;;;;;;;;;;4987296;28;19932;-86
2023/03/30 11:48:37;;;;;;;;;;;;;;;;;;5001106;28;20292;-87
2023/03/30 11:51:23;;;;;;;;;;;;;;;;;;4998097;28;19989;-87
2023/03/30 11:54:10;;;;;;;;;;;;;;;;;;4994734;28;20320;-86
2023/03/30 11:56:56;;;;;;;;;;;;;;;;;;5003874;28;20377;-86
2023/03/30 11:59:43;;;;;;;;;;;;;;;;;;5006312;28;19924;-85
2023/03/30 12:02:29;;;;;;;;;;;;;;;;;;5000712;28;19922;-86
2023/03/30 12:05:15;;;;;;;;;;;;;;;;;;4998381;28;19925;-85
2023/03/30 12:08:02;;;;;;;;;;;;;;;;;;4995650;28;19917;-86
2023/03/30 12:10:48;;;;;;;;;;;;;;;;;;4999354;28;20466;-85
2023/03/30 12:13:35;;;;;;;;;;;;;;;;;;5006092;28;19918;-84
2023/03/30 12:16:21;;;;;;;;;;;;;;;;;;5007723;28;19929;-85
2023/03/30 12:19:08;;;;;;;;;;;;;;;;;;5009868;28;19932;-86
2023/03/30 12:21:54;;;;;;;;;;;;;;;;;;4991483;28;20368;-86
2023/03/30 12:24:41;;;;;;;;;;;;;;;;;;5001100;28;19913;-86
2023/03/30 12:27:30;;;;;;;;;;;;;;;;;;4994438;28;19918;-85
2023/03/30 12:30:16;;;;;;;;;;;;;;;;;;5001777;28;19921;-87
2023/03/30 12:33:03;;;;;;;;;;;;;;;;;;5006286;28;19952;-85
2023/03/30 12:35:49;;;;;;;;;;;;;;;;;;5003494;28;19952;-86
2023/03/30 12:38:37;;;;;;;;;;;;;;;;;;5006496;28;19918;-85
2023/03/30 12:41:24;;;;;;;;;;;;;;;;;;4998130;28;20393;-86
2023/03/30 12:44:13;;;;;;;;;;;;;;;;;;5003139;28;19918;-87
2023/03/30 12:47:00;;;;;;;;;;;;;;;;;;4993685;28;20276;-87
2023/03/30 12:49:47;;;;;;;;;;;;;;;;;;4998546;28;19940;-86
2023/03/30 12:52:33;;;;;;;;;;;;;;;;;;4999483;28;20360;-87
2023/03/30 12:55:20;;;;;;;;;;;;;;;;;;4988234;28;19917;-85
2023/03/30 12:58:06;;;;;;;;;;;;;;;;;;5001371;28;19929;-78
2023/03/30 13:00:53;;;;;;;;;;;;;;;;;;4995014;28;19925;-78
2023/03/30 13:03:39;;;;;;;;;;;;;;;;;;4997367;28;19917;-78
2023/03/30 13:06:26;;;;;;;;;;;;;;;;;;4997539;28;19976;-78
2023/03/30 13:09:12;;;;;;;;;;;;;;;;;;4999670;28;20395;-79
2023/03/30 13:11:59;;;;;;;;;;;;;;;;;;4997675;28;19925;-75
2023/03/30 13:14:45;;;;;;;;;;;;;;;;;;5002250;28;19930;-79
2023/03/30 13:17:32;;;;;;;;;;;;;;;;;;5004628;28;19921;-79
2023/03/30 13:20:18;;;;;;;;;;;;;;;;;;4998223;28;19926;-78
2023/03/30 13:23:05;;;;;;;;;;;;;;;;;;5003724;28;19941;-78
2023/03/30 13:25:53;;;;;;;;;;;;;;;;;;5002375;28;19918;-77
2023/03/30 13:28:39;;;;;;;;;;;;;;;;;;5002980;28;19923;-78
2023/03/30 13:31:26;;;;;;;;;;;;;;;;;;5000720;28;19927;-77
2023/03/30 13:34:12;;;;;;;;;;;;;;;;;;5002003;28;19929;-78
2023/03/30 13:36:59;;;;;;;;;;;;;;;;;;4997067;28;19918;-78
2023/03/30 13:39:46;;;;;;;;;;;;;;;;;;5001983;28;20277;-79
2023/03/30 13:42:32;;;;;;;;;;;;;;;;;;5001054;28;19922;-78
2023/03/30 13:45:19;;;;;;;;;;;;;;;;;;4999832;28;19920;-79
2023/03/30 13:48:05;;;;;;;;;;;;;;;;;;5003394;28;19928;-79
2023/03/30 13:50:52;;;;;;;;;;;;;;;;;;5005823;28;19925;-78
2023/03/30 13:53:38;;;;;;;;;;;;;;;;;;5002281;28;19937;-79
2023/03/30 13:56:26;;;;;;;;;;;;;;;;;;5001606;28;19921;-78
2023/03/30 13:59:12;;;;;;;;;;;;;;;;;;5005059;28;19924;-79
2023/03/30 14:01:59;;;;;;;;;;;;;;;;;;5002913;28;19933;-78
2023/03/30 14:04:49;;;;;;;;;;;;;;;;;;4997118;28;20397;-78
2023/03/30 14:07:35;;;;;;;;;;;;;;;;;;5002403;28;19924;-77
2023/03/30 14:10:22;;;;;;;;;;;;;;;;;;4996088;28;19914;-77
2023/03/30 14:13:08;;;;;;;;;;;;;;;;;;5000907;28;19917;-77
2023/03/30 14:15:55;;;;;;;;;;;;;;;;;;5004034;28;19933;-77
2023/03/30 14:18:41;;;;;;;;;;;;;;;;;;4990804;28;19984;-76
2023/03/30 14:21:28;;;;;;;;;;;;;;;;;;5003552;28;20475;-78
2023/03/30 14:24:15;;;;;;;;;;;;;;;;;;4988434;28;19932;-77
2023/03/30 14:27:02;;;;;;;;;;;;;;;;;;4999672;28;19921;-77
2023/03/30 14:29:48;;;;;;;;;;;;;;;;;;5000800;28;20281;-77
2023/03/30 14:32:35;;;;;;;;;;;;;;;;;;5000916;28;19922;-76
2023/03/30 14:35:21;;;;;;;;;;;;;;;;;;4993305;28;19925;-78
2023/03/30 14:38:08;;;;;;;;;;;;;;;;;;4998837;28;19921;-78
2023/03/30 14:40:54;;;;;;;;;;;;;;;;;;4996618;28;19929;-78
2023/03/30 14:43:41;;;;;;;;;;;;;;;;;;4992633;28;20373;-77
2023/03/30 14:46:27;;;;;;;;;;;;;;;;;;4998173;28;19918;-78
2023/03/30 14:49:14;;;;;;;;;;;;;;;;;;5001985;28;19925;-77
2023/03/30 14:52:01;;;;;;;;;;;;;;;;;;4983012;28;19945;-77
2023/03/30 14:54:50;;;;;;;;;;;;;;;;;;5002484;28;19921;-78
2023/03/30 14:57:36;;;;;;;;;;;;;;;;;;5006431;28;19925;-78
2023/03/30 15:00:23;;;;;;;;;;;;;;;;;;5008858;28;19925;-77
2023/03/30 15:03:10;;;;;;;;;;;;;;;;;;5006605;28;19921;-78
2023/03/30 15:05:56;;;;;;;;;;;;;;;;;;4999968;28;19922;-78
2023/03/30 15:08:43;;;;;;;;;;;;;;;;;;4998293;28;19944;-78
2023/03/30 15:11:30;;;;;;;;;;;;;;;;;;5007908;28;19925;-79
2023/03/30 15:14:17;;;;;;;;;;;;;;;;;;5002010;28;19932;-78
2023/03/30 15:17:04;;;;;;;;;;;;;;;;;;5002355;28;19921;-78
2023/03/30 15:19:52;;;;;;;;;;;;;;;;;;5005183;28;20035;-78
2023/03/30 15:22:39;;;;;;;;;;;;;;;;;;5004821;28;19918;-79
2023/03/30 15:25:26;;;;;;;;;;;;;;;;;;5000604;28;19918;-79
2023/03/30 15:28:12;;;;;;;;;;;;;;;;;;4996101;28;20289;-79
2023/03/30 15:30:59;;;;;;;;;;;;;;;;;;5003424;28;19925;-79
2023/03/30 15:33:45;;;;;;;;;;;;;;;;;;4997143;28;19921;-78
2023/03/30 15:36:32;;;;;;;;;;;;;;;;;;4989274;28;19918;-79
2023/03/30 15:39:18;;;;;;;;;;;;;;;;;;5003453;28;20417;-78
2023/03/30 15:42:05;;;;;;;;;;;;;;;;;;5008096;28;20482;-78
2023/03/30 15:44:51;;;;;;;;;;;;;;;;;;4989239;28;19918;-78
2023/03/30 15:47:38;;;;;;;;;;;;;;;;;;5005593;28;19918;-78
2023/03/30 15:50:24;;;;;;;;;;;;;;;;;;5005929;28;19921;-79
2023/03/30 15:53:11;;;;;;;;;;;;;;;;;;4999934;28;19925;-79
2023/03/30 15:55:57;;;;;;;;;;;;;;;;;;4992658;28;19921;-77
2023/03/30 15:58:44;;;;;;;;;;;;;;;;;;5005522;28;19921;-79
2023/03/30 16:01:30;;;;;;;;;;;;;;;;;;4995611;28;19936;-78
2023/03/30 16:04:17;;;;;;;;;;;;;;;;;;5005010;28;19922;-78
2023/03/30 16:07:03;;;;;;;;;;;;;;;;;;5000378;28;19929;-80
2023/03/30 16:09:50;;;;;;;;;;;;;;;;;;4991613;28;19918;-81
2023/03/30 16:12:37;;;;;;;;;;;;;;;;;;4998869;28;20301;-80
2023/03/30 16:15:23;;;;;;;;;;;;;;;;;;5004677;28;20396;-80
2023/03/30 16:18:10;;;;;;;;;;;;;;;;;;5005371;28;19927;-79
2023/03/30 16:20:57;;;;;;;;;;;;;;;;;;5001730;28;19929;-79
2023/03/30 16:23:43;;;;;;;;;;;;;;;;;;5000206;28;19921;-80
2023/03/30 16:26:30;;;;;;;;;;;;;;;;;;4996882;28;19921;-80
2023/03/30 16:29:16;;;;;;;;;;;;;;;;;;4998624;28;19922;-77
2023/03/30 16:32:03;;;;;;;;;;;;;;;;;;4998759;28;19914;-79
2023/03/30 16:34:51;;;;;;;;;;;;;;;;;;5003794;28;19921;-78
2023/03/30 16:37:37;;;;;;;;;;;;;;;;;;5004883;28;19924;-79
2023/03/30 16:40:24;;;;;;;;;;;;;;;;;;5000496;28;19921;-78
2023/03/30 16:43:10;;;;;;;;;;;;;;;;;;4997262;28;19932;-79
2023/03/30 16:45:57;;;;;;;;;;;;;;;;;;5000363;28;19918;-78
2023/03/30 16:48:43;;;;;;;;;;;;;;;;;;5002749;28;19928;-80
2023/03/30 16:51:30;;;;;;;;;;;;;;;;;;5006313;28;19924;-78
2023/03/30 16:54:17;;;;;;;;;;;;;;;;;;4996405;28;20263;-78
2023/03/30 16:57:03;;;;;;;;;;;;;;;;;;5000116;28;20377;-77
2023/03/30 16:59:51;;;;;;;;;;;;;;;;;;5004500;28;19928;-78
2023/03/30 17:02:37;;;;;;;;;;;;;;;;;;5005304;28;19926;-78
2023/03/30 17:05:24;;;;;;;;;;;;;;;;;;5002911;28;19914;-80
2023/03/30 17:08:10;;;;;;;;;;;;;;;;;;4998766;28;19922;-79
2023/03/30 17:10:58;;;;;;;;;;;;;;;;;;4998269;28;19924;-79
2023/03/30 17:13:46;;;;;;;;;;;;;;;;;;5000446;28;19926;-79
2023/03/30 17:16:33;;;;;;;;;;;;;;;;;;4996909;28;19926;-79
2023/03/30 17:19:20;;;;;;;;;;;;;;;;;;4998121;28;20633;-81
2023/03/30 17:22:06;;;;;;;;;;;;;;;;;;4992344;28;19937;-77
2023/03/30 17:24:53;;;;;;;;;;;;;;;;;;5004399;28;19918;-77
2023/03/30 17:27:40;;;;;;;;;;;;;;;;;;5004654;28;19913;-77
2023/03/30 17:30:26;;;;;;;;;;;;;;;;;;5004547;28;19918;-77
2023/03/30 17:33:13;;;;;;;;;;;;;;;;;;5000573;28;19921;-78
2023/03/30 17:35:59;;;;;;;;;;;;;;;;;;4992346;28;19940;-78
2023/03/30 17:38:46;;;;;;;;;;;;;;;;;;5005020;28;20109;-78
2023/03/30 17:41:33;;;;;;;;;;;;;;;;;;5004725;28;20295;-78
2023/03/30 17:44:20;;;;;;;;;;;;;;;;;;5001702;28;19922;-78
2023/03/30 17:47:06;;;;;;;;;;;;;;;;;;5001545;28;20004;-78
2023/03/30 17:49:53;;;;;;;;;;;;;;;;;;4997344;28;19918;-77
2023/03/30 17:52:39;;;;;;;;;;;;;;;;;;4999963;28;19920;-81
2023/03/30 17:55:26;;;;;;;;;;;;;;;;;;4997740;28;20108;-77
2023/03/30 17:58:12;;;;;;;;;;;;;;;;;;5000831;28;19921;-78
2023/03/30 18:00:59;;;;;;;;;;;;;;;;;;4995267;28;20301;-77
2023/03/30 18:03:45;;;;;;;;;;;;;;;;;;4999224;28;19926;-77
2023/03/30 18:06:32;;;;;;;;;;;;;;;;;;4996139;28;19921;-78
2023/03/30 18:09:18;;;;;;;;;;;;;;;;;;5001626;28;19945;-76
2023/03/30 18:12:05;;;;;;;;;;;;;;;;;;4991696;28;20365;-77
2023/03/30 18:14:51;;;;;;;;;;;;;;;;;;4997264;28;19940;-77
2023/03/30 18:17:38;;;;;;;;;;;;;;;;;;4983499;28;19921;-77
2023/03/30 18:20:24;;;;;;;;;;;;;;;;;;4988271;28;19918;-77
2023/03/30 18:23:11;;;;;;;;;;;;;;;;;;5010231;28;19918;-77
2023/03/30 18:25:57;;;;;;;;;;;;;;;;;;5008152;28;20404;-77
2023/03/30 18:28:45;;;;;;;;;;;;;;;;;;5000392;28;20396;-77
2023/03/30 18:31:31;;;;;;;;;;;;;;;;;;4999543;28;19917;-77
2023/03/30 18:34:18;;;;;;;;;;;;;;;;;;5004080;28;19921;-78
2023/03/30 18:37:04;;;;;;;;;;;;;;;;;;5008883;28;20285;-78
2023/03/30 18:39:51;;;;;;;;;;;;;;;;;;5006740;28;19921;-78
2023/03/30 18:42:44;;;;;;;;;;;;;;;;;;5004323;28;19954;-77
2023/03/30 18:45:30;;;;;;;;;;;;;;;;;;4994941;28;19960;-77
2023/03/30 18:48:17;;;;;;;;;;;;;;;;;;5007006;28;20296;-84
2023/03/30 18:51:03;;;;;;;;;;;;;;;;;;4999754;28;19992;-84
2023/03/30 18:53:50;;;;;;;;;;;;;;;;;;5006450;28;19932;-85
2023/03/30 18:56:36;;;;;;;;;;;;;;;;;;5008742;28;20375;-84
2023/03/30 18:59:24;;;;;;;;;;;;;;;;;;4995171;28;19918;-85